Latest Weather Observations for Bega

IDN60801

Issued at 9:32 pm EDT Saturday 16 December 2017 (issued every 30 minutes, with the page automatically refreshed every 10 minutes)

About weather observations | Map of weather stations | Latest weather observations for NSW | Other Formats
Station Details ID: 069139 Name: BEGA AWS Lat: -36.67 Lon: 149.82 Height: 41.0 m
Data from the previous 72 hours. | See also: Recent months at Bega
Date/Time
EDT
Temp
°C
App
Temp
°C
Dew
Point
°C
Rel
Hum
%
Delta-T
°C
Wind Press
QNH
hPa
Press
MSL
hPa
Rain since
9am
mm
Dir  Spd
km/h
Gust
km/h
Spd
kts
Gust
kts
16/09:30pm 20.0 20.5 17.4 85 1.6 ESE 11 17 6 9 1017.4 1017.2 0.4
16/09:00pm 20.3 21.4 17.9 86 1.5 SE 9 13 5 7 1017.1 1016.9 0.4
16/08:30pm 20.4 21.2 18.2 87 1.4 ESE 11 17 6 9 1016.9 1016.7 0.4
16/08:00pm 20.4 20.4 18.2 87 1.4 ESE 15 20 8 11 1016.5 1016.3 0.4
16/07:30pm 20.9 20.0 17.7 82 2.0 SE 19 26 10 14 1016.0 1015.8 0.4
16/07:00pm 21.4 21.4 18.0 81 2.1 E 15 22 8 12 1015.4 1015.3 0.4
16/06:30pm 21.8 21.8 18.0 79 2.4 ESE 15 20 8 11 1014.8 1014.7 0.4
16/06:00pm 22.5 22.0 18.7 79 2.4 SE 19 28 10 15 1014.3 1014.2 0.4
16/05:30pm 22.1 21.7 18.1 78 2.5 SSE 17 24 9 13 1014.1 1014.0 0.4
16/05:00pm 22.9 22.8 18.7 77 2.7 SE 17 22 9 12 1014.2 1014.1 0.4
16/04:30pm 24.1 24.6 19.2 74 3.1 ESE 15 22 8 12 1013.9 1013.8 0.4
16/04:00pm 24.1 23.9 18.5 71 3.5 SE 17 22 9 12 1013.9 1013.8 0.4
16/03:30pm 24.3 24.0 19.6 75 3.0 ESE 20 28 11 15 1013.5 1013.4 0.4
16/03:00pm 24.3 24.4 19.1 73 3.3 E 17 26 9 14 1013.2 1013.1 0.4
16/02:30pm 23.8 22.8 18.9 74 3.1 E 22 30 12 16 1013.4 1013.3 0.4
16/02:00pm 24.4 23.9 19.9 76 2.9 ESE 22 30 12 16 1012.7 1012.6 0.4
16/01:30pm 24.1 25.1 20.2 79 2.5 NE 15 19 8 10 1012.7 1012.6 0.4
16/01:00pm 24.0 23.5 20.7 82 2.2 E 24 32 13 17 1012.7 1012.6 0.4
16/12:30pm 24.2 24.8 18.6 71 3.5 SSE 13 20 7 11 1013.4 1013.3 0.0
16/12:00pm 26.1 27.5 20.4 71 3.7 SE 13 17 7 9 1012.7 1012.6 0.0
16/11:30am 25.3 26.9 19.2 69 3.9 SE 9 15 5 8 1012.8 1012.7 0.0
16/11:00am 25.3 27.5 20.5 75 3.1 SE 9 17 5 9 1012.9 1012.8 0.0
16/10:30am 23.3 25.8 19.0 77 2.7 SSW 4 11 2 6 1012.9 1012.8 0.0
16/10:00am 22.4 25.3 19.0 81 2.2 NNE 2 7 1 4 1013.1 1013.0 0.0
16/09:30am 20.6 23.2 18.4 87 1.4 NNW 2 7 1 4 1013.2 1013.1 0.0
16/09:00am 19.5 22.1 18.5 94 0.6 SW 2 7 1 4 1013.4 1013.3 0.0
16/08:30am 18.4 20.9 18.1 98 0.2 S 2 9 1 5 1013.3 1013.2 0.0
16/08:00am 17.9 19.4 17.7 99 0.1 S 6 7 3 4 1013.0 1012.9 0.0
16/07:30am 18.2 19.7 18.0 99 0.1 SSW 7 11 4 6 1012.6 1012.5 0.0
16/07:00am 18.3 20.0 18.1 99 0.1 SW 6 9 3 5 1012.2 1012.1 0.0
16/06:30am 18.2 21.0 18.0 99 0.1 CALM 0 6 0 3 1011.6 1011.5 0.0
16/06:00am 18.3 21.2 18.1 99 0.1 CALM 0 0 0 0 1011.3 1011.2 0.0
16/05:30am 18.2 19.9 18.0 99 0.1 NNW 6 9 3 5 1010.9 1010.8 0.0
16/05:00am 18.3 21.2 18.1 99 0.1 CALM 0 0 0 0 1010.6 1010.5 0.0
16/04:30am 18.2 19.7 18.0 99 0.1 NNE 7 11 4 6 1010.3 1010.2 0.0
16/04:00am 18.4 20.0 17.9 97 0.3 N 6 7 3 4 1010.1 1010.0 0.0
16/03:30am 18.4 19.7 17.6 95 0.5 W 7 9 4 5 1009.9 1009.8 0.0
16/03:00am 18.9 20.6 18.1 95 0.5 W 6 7 3 4 1010.1 1010.0 0.0
16/02:30am 19.0 20.6 18.3 96 0.4 WSW 7 11 4 6 1010.2 1010.1 0.0
16/02:00am 18.9 21.3 18.7 99 0.1 NW 4 7 2 4 1010.6 1010.5 0.0
16/01:30am 18.9 22.0 18.7 99 0.1 CALM 0 0 0 0 1010.8 1010.7 0.0
16/01:00am 18.9 22.0 18.7 99 0.1 CALM 0 0 0 0 1011.2 1011.1 0.0
16/12:30am 18.8 21.1 18.6 99 0.1 NNW 4 7 2 4 1011.4 1011.3 0.0
16/12:00am 18.8 21.9 18.6 99 0.1 CALM 0 0 0 0 1011.5 1011.4 0.0
 
Date/Time
EDT
Temp
°C
App
Temp
°C
Dew
Point
°C
Rel
Hum
%
Delta-T
°C
Wind Press
QNH
hPa
Press
MSL
hPa
Rain since
9am
mm
Dir  Spd
km/h
Gust
km/h
Spd
kts
Gust
kts
15/11:30pm 18.8 21.9 18.6 99 0.1 CALM 0 0 0 0 1011.6 1011.5 0.0
15/11:00pm 18.8 20.7 18.6 99 0.1 S 6 7 3 4 1011.7 1011.6 0.0
15/10:30pm 18.9 22.0 18.7 99 0.1 CALM 0 0 0 0 1012.0 1011.9 0.0
15/10:00pm 18.9 21.3 18.7 99 0.1 WSW 4 7 2 4 1012.1 1012.0 0.0
15/09:30pm 19.0 21.0 18.8 99 0.1 SW 6 6 3 3 1012.0 1011.9 0.0
15/09:00pm 19.1 22.3 18.9 99 0.1 CALM 0 0 0 0 1011.9 1011.8 0.0
15/08:30pm 19.1 22.3 18.9 99 0.1 CALM 0 0 0 0 1011.7 1011.6 0.0
15/08:00pm 19.3 22.6 19.0 98 0.2 CALM 0 0 0 0 1011.6 1011.5 0.0
15/07:30pm 19.3 22.4 18.6 96 0.4 CALM 0 0 0 0 1011.2 1011.1 0.0
15/07:00pm 19.4 22.3 18.2 93 0.7 CALM 0 0 0 0 1010.8 1010.7 0.0
15/06:30pm 19.5 22.3 18.0 91 0.9 CALM 0 0 0 0 1010.7 1010.6 0.0
15/06:00pm 19.8 22.2 17.9 89 1.2 S 2 6 1 3 1010.6 1010.5 0.0
15/05:30pm 19.8 21.4 17.8 88 1.2 SSE 6 7 3 4 1010.6 1010.5 0.0
15/05:00pm 19.9 22.2 17.7 87 1.4 SSE 2 7 1 4 1010.7 1010.6 0.0
15/04:30pm 19.8 21.1 17.6 87 1.4 NE 7 9 4 5 1010.9 1010.8 0.0
15/04:00pm 19.8 21.1 17.6 87 1.4 E 7 13 4 7 1011.2 1011.1 0.0
15/03:30pm 19.4 19.8 17.2 87 1.3 ENE 11 15 6 8 1011.4 1011.3 0.0
15/03:00pm 19.3 18.0 16.7 85 1.6 NE 19 24 10 13 1011.7 1011.6 0.0
15/02:30pm 19.2 17.7 16.4 84 1.7 NE 19 24 10 13 1012.1 1012.0 0.0
15/02:00pm 19.6 17.9 16.3 81 2.0 NE 20 26 11 14 1012.3 1012.2 0.0
15/01:30pm 19.3 17.8 16.2 82 1.9 NE 19 24 10 13 1012.5 1012.4 0.0
15/01:00pm 19.3 18.8 15.8 80 2.1 NE 13 17 7 9 1012.9 1012.8 0.0
15/12:30pm 19.4 18.4 15.7 79 2.2 NE 15 20 8 11 1013.1 1013.0 0.0
15/12:00pm 19.2 18.2 15.7 80 2.1 NE 15 20 8 11 1013.5 1013.4 0.0
15/11:30am 18.9 18.7 15.8 82 1.8 ENE 11 17 6 9 1013.7 1013.6 0.0
15/11:00am 18.4 20.3 16.7 90 1.0 ENE 2 6 1 3 1014.0 1013.9 0.0
15/10:30am 17.6 18.9 17.1 97 0.3 S 6 9 3 5 1014.4 1014.3 0.0
15/10:00am 16.8 17.8 16.3 97 0.3 SSW 6 7 3 4 1014.6 1014.5 0.0
15/09:30am 16.6 17.5 16.1 97 0.3 SSW 6 7 3 4 1014.6 1014.5 0.0
15/09:00am 16.5 17.2 16.0 97 0.3 S 7 9 4 5 1014.6 1014.5 4.2
15/08:30am 16.9 18.6 16.1 95 0.5 S 2 6 1 3 1014.5 1014.4 4.2
15/08:00am 16.9 17.8 16.1 95 0.5 NW 6 7 3 4 1014.4 1014.3 4.2
15/07:30am 16.9 17.7 15.8 93 0.6 WNW 6 7 3 4 1014.5 1014.4 4.2
15/07:00am 16.6 18.0 15.5 93 0.6 WNW 2 7 1 4 1013.9 1013.8 4.2
15/06:30am 16.6 18.2 14.8 89 1.0 CALM 0 0 0 0 1013.5 1013.4 4.2
15/06:00am 16.6 18.3 15.1 91 0.9 CALM 0 6 0 3 1013.3 1013.2 4.2
15/05:30am 16.7 16.7 15.1 90 0.9 ENE 9 13 5 7 1012.8 1012.7 3.8
15/05:00am 17.0 17.7 15.7 92 0.8 NNE 6 9 3 5 1012.6 1012.5 3.2
15/04:30am 17.1 17.2 15.6 91 0.9 ENE 9 15 5 8 1012.2 1012.1 3.0
15/04:00am 17.4 17.8 16.4 94 0.6 NE 9 15 5 8 1012.2 1012.1 2.6
15/03:30am 17.5 18.7 16.9 96 0.4 NE 6 7 3 4 1012.4 1012.3 2.4
15/03:00am 17.7 18.0 16.9 95 0.5 NE 11 17 6 9 1012.2 1012.1 2.2
15/02:30am 17.8 18.0 16.7 93 0.7 ENE 11 19 6 10 1012.4 1012.3 1.4
15/02:00am 18.1 18.9 17.3 95 0.5 NE 9 13 5 7 1012.4 1012.3 0.8
15/01:30am 18.1 18.9 17.3 95 0.5 ENE 9 13 5 7 1012.3 1012.2 0.6
15/01:00am 18.6 19.2 16.9 90 1.0 N 9 13 5 7 1012.5 1012.4 0.4
15/12:30am 18.7 18.6 16.9 89 1.1 NNE 13 15 7 8 1011.7 1011.6 0.2
15/12:00am 19.3 19.5 16.7 85 1.6 N 11 15 6 8 1011.9 1011.8 0.0
 
Date/Time
EDT
Temp
°C
App
Temp
°C
Dew
Point
°C
Rel
Hum
%
Delta-T
°C
Wind Press
QNH
hPa
Press
MSL
hPa
Rain since
9am
mm
Dir  Spd
km/h
Gust
km/h
Spd
kts
Gust
kts
14/11:30pm 19.3 19.2 16.9 86 1.5 NNE 13 17 7 9 1011.5 1011.4 0.0
14/11:00pm 19.3 19.3 17.1 87 1.3 NNE 13 17 7 9 1011.1 1011.0 0.0
14/10:30pm 19.6 20.1 17.4 87 1.3 N 11 15 6 8 1011.3 1011.2 0.0
14/10:00pm 19.6 20.0 17.2 86 1.5 NNE 11 15 6 8 1010.5 1010.4 0.0
14/09:30pm 19.7 19.7 17.3 86 1.5 NNE 13 17 7 9 1010.0 1009.9 0.0
14/09:00pm 20.0 19.0 17.6 86 1.5 NNE 19 22 10 12 1009.6 1009.5 0.0
14/08:30pm 20.4 20.7 17.8 85 1.6 NNE 13 19 7 10 1008.8 1008.7 0.0
14/08:00pm 21.0 21.3 18.0 83 1.9 ENE 13 19 7 10 1007.9 1007.8 0.0
14/07:30pm 21.7 20.8 17.7 78 2.5 E 19 26 10 14 1006.9 1006.8 0.0
14/07:00pm 21.6 21.6 18.0 80 2.2 E 15 22 8 12 1006.2 1006.1 0.0
14/06:30pm 21.9 22.7 18.1 79 2.4 E 11 20 6 11 1005.7 1005.6 0.0
14/06:00pm 21.8 22.7 17.6 77 2.6 E 9 13 5 7 1005.2 1005.1 0.0
14/05:30pm 22.2 22.9 18.0 77 2.6 S 11 19 6 10 1004.8 1004.7 0.0
14/05:00pm 24.4 26.9 21.1 82 2.2 ENE 9 17 5 9 1004.4 1004.3 0.0
14/04:30pm 25.2 29.2 21.3 79 2.6 SE 2 9 1 5 1003.7 1003.6 0.0
14/04:00pm 25.6 29.3 21.5 78 2.7 N 4 7 2 4 1003.4 1003.3 0.0
14/03:30pm 24.9 29.3 21.4 81 2.3 CALM 0 0 0 0 1003.1 1003.0 0.0
14/03:00pm 24.8 27.9 21.1 80 2.4 SW 6 9 3 5 1003.0 1002.9 0.0
14/02:30pm 25.2 28.8 21.3 79 2.6 NE 4 13 2 7 1003.1 1003.0 0.0
14/02:00pm 25.0 28.0 21.3 80 2.5 NE 7 11 4 6 1003.2 1003.1 0.0
14/01:30pm 24.8 28.4 21.3 81 2.3 NNW 4 9 2 5 1003.3 1003.2 0.0
14/01:00pm 24.9 29.3 21.4 81 2.3 CALM 0 0 0 0 1003.6 1003.5 0.0
14/12:30pm 24.6 29.0 21.3 82 2.2 CALM 0 0 0 0 1003.6 1003.5 0.0
14/12:00pm 24.7 27.9 21.2 81 2.3 NE 6 9 3 5 1003.8 1003.7 0.0
14/11:30am 23.6 27.3 20.7 84 1.9 NE 2 7 1 4 1004.1 1004.0 0.0
14/11:00am 23.1 26.9 20.1 83 1.9 CALM 0 0 0 0 1003.9 1003.8 0.0
14/10:30am 22.9 26.4 19.5 81 2.2 CALM 0 0 0 0 1004.1 1004.0 0.0
14/10:00am 22.4 25.3 19.9 86 1.6 ESE 4 7 2 4 1003.7 1003.6 0.0
14/09:30am 21.1 23.1 19.9 93 0.8 S 9 11 5 6 1003.9 1003.8 0.0
14/09:00am 19.3 22.1 18.8 97 0.3 NE 2 7 1 4 1004.1 1004.0 0.0
14/08:30am 18.5 21.1 18.3 99 0.1 NNE 2 7 1 4 1004.4 1004.3 0.0
14/08:00am 17.9 20.7 17.9 100 0.0 CALM 0 0 0 0 1004.8 1004.7 0.0
14/07:30am 17.0 18.6 17.0 100 0.0 SSW 4 11 2 6 1004.7 1004.6 0.0
14/07:00am 16.4 18.6 16.4 100 0.0 CALM 0 0 0 0 1004.4 1004.3 0.0
14/06:30am 15.7 17.6 15.7 100 0.0 CALM 0 0 0 0 1004.6 1004.5 0.0
14/06:00am 15.1 16.3 14.9 99 0.1 SE 2 9 1 5 1004.6 1004.5 0.0
14/05:30am 15.4 17.1 15.2 99 0.1 CALM 0 0 0 0 1004.6 1004.5 0.0
14/05:00am 15.6 16.2 15.4 99 0.1 N 6 7 3 4 1004.7 1004.6 0.0
14/04:30am 16.3 18.3 16.1 99 0.1 CALM 0 0 0 0 1004.7 1004.6 0.0
14/04:00am 16.7 18.9 16.5 99 0.1 CALM 0 0 0 0 1004.7 1004.6 0.0
14/03:30am 16.8 19.0 16.6 99 0.1 CALM 0 0 0 0 1004.9 1004.8 0.0
14/03:00am 17.1 19.5 16.9 99 0.1 CALM 0 2 0 1 1005.3 1005.2 0.0
14/02:30am 17.2 19.6 17.0 99 0.1 CALM 0 2 0 1 1005.6 1005.5 0.0
14/02:00am 17.1 19.1 16.9 99 0.1 N 2 9 1 5 1006.3 1006.2 0.0
14/01:30am 17.6 20.2 17.4 99 0.1 CALM 0 0 0 0 1006.6 1006.5 0.0
14/01:00am 18.2 21.0 17.9 98 0.2 CALM 0 0 0 0 1007.0 1006.9 0.0
14/12:30am 18.9 21.5 18.4 97 0.3 NNE 2 6 1 3 1007.6 1007.5 0.0
14/12:00am 19.5 21.5 18.8 96 0.4 N 6 6 3 3 1008.3 1008.2 0.0
 
Date/Time
EDT
Temp
°C
App
Temp
°C
Dew
Point
°C
Rel
Hum
%
Delta-T
°C
Wind Press
QNH
hPa
Press
MSL
hPa
Rain since
9am
mm
Dir  Spd
km/h
Gust
km/h
Spd
kts
Gust
kts
13/11:30pm 20.0 23.3 19.0 94 0.6 CALM 0 0 0 0 1008.4 1008.3 0.0
13/11:00pm 20.6 24.0 19.3 92 0.8 CALM 0 0 0 0 1008.9 1008.8 0.0
13/10:30pm 20.8 24.1 19.1 90 1.1 CALM 0 6 0 3 1009.1 1009.0 0.0
13/10:00pm 21.2 23.7 19.1 88 1.3 ESE 4 7 2 4 1009.1 1009.0 0.0

Other Formats:

Comma delimited format used in spreadsheet applications
http://www.bom.gov.au/fwo/IDN60801/IDN60801.95931.axf

JavaScript Object Notation format (JSON) in row-major order
http://www.bom.gov.au/fwo/IDN60801/IDN60801.95931.json